Time;durP1;ratioP1;P1;durP2;ratioP2;P2;SDS_P1;SDS_P2;PMS_P1;PMS_P2;Temp;Humidity;BMP_temperature;BMP_pressure;BME280_temperature;BME280_humidity;BME280_pressure;Samples;Min_cycle;Max_cycle;Signal;HPM_P1;HPM_P2
2021/09/20 00:01:51;;;;;;;8.77;6.57;;;;;;;;;;5073635;28;20441;-82
2021/09/20 00:04:18;;;;;;;9.47;7.47;;;;;;;;;;5073524;28;20445;-83
2021/09/20 00:06:45;;;;;;;8.03;6.80;;;;;;;;;;5072943;28;20445;-85
2021/09/20 00:09:13;;;;;;;8.43;7.50;;;;;;;;;;5073136;28;20432;-84
2021/09/20 00:11:40;;;;;;;9.50;7.17;;;;;;;;;;5073188;28;20477;-83
2021/09/20 00:14:07;;;;;;;7.43;6.60;;;;;;;;;;5073002;28;20988;-83
2021/09/20 00:16:36;;;;;;;8.20;6.90;;;;;;;;;;5073688;28;20441;-83
2021/09/20 00:19:03;;;;;;;7.80;7.00;;;;;;;;;;5072874;28;20461;-83
2021/09/20 00:21:30;;;;;;;8.07;6.70;;;;;;;;;;5073514;28;20451;-83
2021/09/20 00:23:57;;;;;;;9.20;7.47;;;;;;;;;;5073532;28;20436;-82
2021/09/20 00:26:25;;;;;;;12.53;7.50;;;;;;;;;;5073091;28;20441;-82
2021/09/20 00:28:52;;;;;;;9.93;8.23;;;;;;;;;;5072911;28;20571;-82
2021/09/20 00:31:19;;;;;;;8.90;7.67;;;;;;;;;;5072692;28;20472;-82
2021/09/20 00:33:48;;;;;;;8.93;7.40;;;;;;;;;;5073021;28;20803;-81
2021/09/20 00:36:15;;;;;;;8.83;7.20;;;;;;;;;;5073028;28;20437;-80
2021/09/20 00:38:42;;;;;;;8.53;7.40;;;;;;;;;;5072670;28;20448;-80
2021/09/20 00:41:09;;;;;;;10.23;7.97;;;;;;;;;;5072807;28;20929;-80
2021/09/20 00:43:36;;;;;;;9.30;8.20;;;;;;;;;;5074852;28;20468;-82
2021/09/20 00:46:05;;;;;;;9.03;7.40;;;;;;;;;;5076518;28;20451;-80
2021/09/20 00:48:32;;;;;;;8.70;6.83;;;;;;;;;;5076418;28;20523;-81
2021/09/20 00:51:01;;;;;;;8.23;7.20;;;;;;;;;;5076135;28;20977;-81
2021/09/20 00:53:28;;;;;;;10.23;8.40;;;;;;;;;;5076393;28;20450;-82
2021/09/20 00:55:56;;;;;;;8.70;7.33;;;;;;;;;;5076483;28;20798;-82
2021/09/20 00:58:23;;;;;;;10.27;8.47;;;;;;;;;;5076557;28;20557;-82
2021/09/20 01:00:50;;;;;;;11.13;8.20;;;;;;;;;;5076386;28;20448;-81
2021/09/20 01:03:17;;;;;;;9.00;8.00;;;;;;;;;;5076004;28;20440;-82
2021/09/20 01:05:45;;;;;;;11.07;8.30;;;;;;;;;;5075904;28;20447;-81
2021/09/20 01:08:13;;;;;;;7.97;7.13;;;;;;;;;;5075925;28;20528;-82
2021/09/20 01:10:41;;;;;;;9.77;7.80;;;;;;;;;;5076099;28;20487;-81
2021/09/20 01:13:08;;;;;;;11.20;7.97;;;;;;;;;;5076266;28;20436;-81
2021/09/20 01:15:35;;;;;;;9.60;7.30;;;;;;;;;;5075937;28;20445;-83
2021/09/20 01:18:02;;;;;;;8.80;7.90;;;;;;;;;;5076249;28;20437;-82
2021/09/20 01:20:30;;;;;;;10.50;8.80;;;;;;;;;;5076276;28;20536;-82
2021/09/20 01:23:00;;;;;;;8.97;8.03;;;;;;;;;;5076012;28;20440;-82
2021/09/20 01:25:27;;;;;;;9.90;7.97;;;;;;;;;;5075684;28;20456;-82
2021/09/20 01:27:54;;;;;;;10.10;8.17;;;;;;;;;;5076358;28;20567;-81
2021/09/20 01:30:22;;;;;;;9.30;7.70;;;;;;;;;;5075518;28;20476;-80
2021/09/20 01:32:49;;;;;;;15.63;9.50;;;;;;;;;;5075808;28;20439;-80
2021/09/20 01:35:18;;;;;;;9.00;7.33;;;;;;;;;;5076054;28;20537;-80
2021/09/20 01:37:45;;;;;;;10.40;8.60;;;;;;;;;;5075356;28;20444;-81
2021/09/20 01:40:15;;;;;;;10.30;8.77;;;;;;;;;;5075407;28;20440;-83
2021/09/20 01:42:42;;;;;;;11.98;8.60;;;;;;;;;;5075496;28;20528;-81
2021/09/20 01:45:10;;;;;;;11.73;8.10;;;;;;;;;;5075361;28;20198;-83
2021/09/20 01:47:37;;;;;;;10.13;8.67;;;;;;;;;;5075583;28;20797;-82
2021/09/20 01:50:05;;;;;;;8.23;7.43;;;;;;;;;;5075370;28;20437;-82
2021/09/20 01:52:32;;;;;;;9.20;8.30;;;;;;;;;;5075434;28;20436;-81
2021/09/20 01:54:59;;;;;;;13.13;8.40;;;;;;;;;;5074963;28;20450;-81
2021/09/20 01:57:28;;;;;;;12.03;8.93;;;;;;;;;;5074932;28;20476;-81
2021/09/20 01:59:55;;;;;;;13.00;7.70;;;;;;;;;;5074996;28;20467;-81
2021/09/20 02:02:22;;;;;;;10.63;8.00;;;;;;;;;;5075210;28;20451;-81
2021/09/20 02:04:49;;;;;;;8.97;8.07;;;;;;;;;;5075529;28;20444;-80
2021/09/20 02:07:17;;;;;;;10.23;7.83;;;;;;;;;;5074814;28;20439;-81
2021/09/20 02:09:44;;;;;;;9.20;8.00;;;;;;;;;;5074811;28;20532;-82
2021/09/20 02:12:11;;;;;;;9.93;8.33;;;;;;;;;;5075040;28;20566;-82
2021/09/20 02:14:40;;;;;;;8.27;7.47;;;;;;;;;;5074977;28;20447;-81
2021/09/20 02:17:07;;;;;;;11.67;8.90;;;;;;;;;;5075091;28;20436;-82
2021/09/20 02:19:34;;;;;;;9.90;8.90;;;;;;;;;;5074540;28;20475;-81
2021/09/20 02:22:01;;;;;;;9.60;8.30;;;;;;;;;;5074512;28;20906;-80
2021/09/20 02:24:29;;;;;;;12.90;9.50;;;;;;;;;;5074889;28;20561;-80
2021/09/20 02:26:56;;;;;;;10.03;8.80;;;;;;;;;;5074441;28;20865;-80
2021/09/20 02:29:23;;;;;;;10.20;8.63;;;;;;;;;;5075077;28;20474;-81
2021/09/20 02:31:52;;;;;;;11.23;7.70;;;;;;;;;;5074438;28;20487;-80
2021/09/20 02:34:20;;;;;;;8.47;7.67;;;;;;;;;;5074738;28;20451;-80
2021/09/20 02:36:47;;;;;;;11.50;8.63;;;;;;;;;;5074546;28;20449;-79
2021/09/20 02:39:14;;;;;;;13.07;8.60;;;;;;;;;;5074577;28;20528;-80
2021/09/20 02:41:42;;;;;;;9.33;8.33;;;;;;;;;;5074093;28;20511;-79
2021/09/20 02:44:12;;;;;;;21.20;8.63;;;;;;;;;;5074370;28;20466;-81
2021/09/20 02:46:39;;;;;;;10.47;9.37;;;;;;;;;;5074550;28;20525;-79
2021/09/20 02:49:08;;;;;;;9.85;8.35;;;;;;;;;;5074316;28;20432;-80
2021/09/20 02:51:35;;;;;;;10.10;8.97;;;;;;;;;;5074442;28;20214;-78
2021/09/20 02:54:03;;;;;;;11.07;8.30;;;;;;;;;;5074162;28;20453;-77
2021/09/20 02:56:31;;;;;;;9.43;8.37;;;;;;;;;;5073794;28;20992;-79
2021/09/20 02:58:58;;;;;;;10.27;8.47;;;;;;;;;;5074099;28;20459;-80
2021/09/20 03:01:25;;;;;;;9.10;7.73;;;;;;;;;;5074483;28;20472;-79
2021/09/20 03:03:52;;;;;;;9.63;8.17;;;;;;;;;;5074040;28;20437;-78
2021/09/20 03:06:21;;;;;;;11.87;8.30;;;;;;;;;;5073218;28;20448;-80
2021/09/20 03:08:48;;;;;;;11.13;8.80;;;;;;;;;;5073974;28;20446;-80
2021/09/20 03:11:15;;;;;;;10.90;9.20;;;;;;;;;;5074626;28;20484;-79
2021/09/20 03:13:42;;;;;;;8.90;7.97;;;;;;;;;;5073699;28;20437;-79
2021/09/20 03:16:09;;;;;;;10.50;9.07;;;;;;;;;;5073893;28;20472;-81
2021/09/20 03:18:37;;;;;;;11.17;7.90;;;;;;;;;;5073536;28;20475;-80
2021/09/20 03:21:04;;;;;;;11.00;9.00;;;;;;;;;;5073488;28;20444;-82
2021/09/20 03:23:33;;;;;;;10.07;8.37;;;;;;;;;;5073441;28;20448;-81
2021/09/20 03:26:00;;;;;;;9.57;8.27;;;;;;;;;;5073373;28;20479;-80
2021/09/20 03:28:27;;;;;;;9.47;8.10;;;;;;;;;;5073662;28;20491;-80
2021/09/20 03:30:54;;;;;;;11.97;8.40;;;;;;;;;;5073907;28;20455;-81
2021/09/20 03:33:21;;;;;;;9.73;8.67;;;;;;;;;;5073632;28;20443;-82
2021/09/20 03:35:48;;;;;;;9.03;8.13;;;;;;;;;;5073277;28;20443;-81
2021/09/20 03:38:16;;;;;;;12.50;9.93;;;;;;;;;;5073320;28;20445;-82
2021/09/20 03:40:44;;;;;;;10.17;9.07;;;;;;;;;;5073260;28;20447;-81
2021/09/20 03:43:12;;;;;;;11.40;7.97;;;;;;;;;;5073760;28;20528;-81
2021/09/20 03:45:39;;;;;;;9.73;7.90;;;;;;;;;;5074311;28;20527;-81
2021/09/20 03:48:06;;;;;;;8.87;8.07;;;;;;;;;;5073192;28;20933;-79
2021/09/20 03:50:33;;;;;;;11.63;8.67;;;;;;;;;;5073457;28;20451;-79
2021/09/20 03:53:00;;;;;;;10.13;8.07;;;;;;;;;;5073903;28;20651;-80
2021/09/20 03:55:28;;;;;;;9.40;8.20;;;;;;;;;;5073867;28;20444;-80
2021/09/20 03:57:56;;;;;;;9.67;8.50;;;;;;;;;;5072999;28;20441;-80
2021/09/20 04:00:23;;;;;;;10.77;8.33;;;;;;;;;;5073531;28;20457;-79
2021/09/20 04:02:51;;;;;;;13.70;8.80;;;;;;;;;;5073715;28;20441;-80
2021/09/20 04:05:18;;;;;;;12.90;8.77;;;;;;;;;;5073335;28;20436;-78
2021/09/20 04:07:45;;;;;;;9.80;8.80;;;;;;;;;;5073018;28;20440;-80
2021/09/20 04:10:13;;;;;;;9.13;8.10;;;;;;;;;;5074036;28;20455;-80
2021/09/20 04:12:40;;;;;;;9.70;7.80;;;;;;;;;;5074014;28;20479;-79
2021/09/20 04:15:09;;;;;;;11.10;8.63;;;;;;;;;;5072939;28;20966;-80
2021/09/20 04:17:36;;;;;;;14.13;9.33;;;;;;;;;;5074096;28;20436;-80
2021/09/20 04:20:04;;;;;;;12.67;9.13;;;;;;;;;;5076889;28;20451;-71
2021/09/20 04:22:31;;;;;;;11.60;9.60;;;;;;;;;;5077300;28;20464;-80
2021/09/20 04:24:59;;;;;;;11.30;9.60;;;;;;;;;;5076922;28;20444;-77
2021/09/20 04:27:27;;;;;;;9.50;8.30;;;;;;;;;;5076424;28;20441;-70
2021/09/20 04:29:55;;;;;;;10.33;9.23;;;;;;;;;;5082397;28;20435;-71
2021/09/20 04:32:23;;;;;;;11.83;8.37;;;;;;;;;;5096036;28;20481;-71
2021/09/20 04:34:51;;;;;;;9.65;8.10;;;;;;;;;;5096093;28;20518;-69
2021/09/20 04:37:18;;;;;;;10.00;8.30;;;;;;;;;;5096236;28;20238;-70
2021/09/20 04:39:45;;;;;;;11.50;8.93;;;;;;;;;;5096446;28;20446;-71
2021/09/20 04:42:13;;;;;;;12.60;9.90;;;;;;;;;;5096489;28;20442;-70
2021/09/20 04:44:40;;;;;;;12.30;8.90;;;;;;;;;;5096434;28;20460;-71
2021/09/20 04:47:08;;;;;;;9.50;8.13;;;;;;;;;;5096153;28;20450;-72
2021/09/20 04:49:36;;;;;;;12.00;8.53;;;;;;;;;;5095974;28;20444;-70
2021/09/20 04:52:04;;;;;;;12.80;8.33;;;;;;;;;;5096389;28;20562;-71
2021/09/20 04:54:31;;;;;;;12.17;8.63;;;;;;;;;;5096364;28;20442;-70
2021/09/20 04:56:58;;;;;;;11.93;10.10;;;;;;;;;;5096206;28;20440;-72
2021/09/20 04:59:25;;;;;;;10.45;8.50;;;;;;;;;;5096338;28;20451;-72
2021/09/20 05:01:52;;;;;;;10.43;9.00;;;;;;;;;;5095658;28;20665;-70
2021/09/20 05:04:20;;;;;;;10.80;9.30;;;;;;;;;;5096064;28;20530;-70
2021/09/20 05:06:48;;;;;;;10.40;8.20;;;;;;;;;;5096245;28;20471;-71
2021/09/20 05:09:15;;;;;;;11.60;9.57;;;;;;;;;;5096350;28;20445;-71
2021/09/20 05:11:43;;;;;;;12.83;9.40;;;;;;;;;;5096297;28;20479;-70
2021/09/20 05:14:10;;;;;;;14.10;9.23;;;;;;;;;;5096963;28;20443;-70
2021/09/20 05:16:37;;;;;;;15.63;9.27;;;;;;;;;;5095963;28;20197;-70
2021/09/20 05:19:04;;;;;;;11.30;10.10;;;;;;;;;;5096666;28;20443;-71
2021/09/20 05:21:31;;;;;;;14.85;10.20;;;;;;;;;;5095541;28;20484;-70
2021/09/20 05:24:00;;;;;;;17.13;10.95;;;;;;;;;;5095852;28;20608;-71
2021/09/20 05:26:27;;;;;;;13.05;9.15;;;;;;;;;;5095678;28;20198;-71
2021/09/20 05:28:54;;;;;;;12.73;9.05;;;;;;;;;;5096011;28;20255;-71
2021/09/20 05:31:22;;;;;;;11.97;8.70;;;;;;;;;;5096229;28;20198;-71
2021/09/20 05:33:50;;;;;;;14.53;8.83;;;;;;;;;;5095594;28;20448;-71
2021/09/20 05:36:17;;;;;;;13.80;9.95;;;;;;;;;;5095586;28;20447;-71
2021/09/20 05:38:44;;;;;;;12.53;9.67;;;;;;;;;;5096297;28;20562;-71
2021/09/20 05:41:12;;;;;;;15.87;10.03;;;;;;;;;;5096060;28;20464;-71
2021/09/20 05:43:40;;;;;;;11.13;9.37;;;;;;;;;;5095730;28;20447;-68
2021/09/20 05:46:07;;;;;;;13.63;9.23;;;;;;;;;;5095526;28;20449;-72
2021/09/20 05:48:34;;;;;;;12.80;10.10;;;;;;;;;;5095424;28;20192;-70
2021/09/20 05:51:02;;;;;;;16.13;9.63;;;;;;;;;;5095705;28;20454;-71
2021/09/20 05:53:29;;;;;;;10.90;9.03;;;;;;;;;;5095526;28;20294;-71
2021/09/20 05:55:56;;;;;;;12.03;8.93;;;;;;;;;;5095642;28;20449;-70
2021/09/20 05:58:25;;;;;;;16.73;9.30;;;;;;;;;;5094998;28;20494;-70
2021/09/20 06:00:52;;;;;;;18.98;10.95;;;;;;;;;;5095400;28;20448;-70
2021/09/20 06:03:19;;;;;;;11.97;9.10;;;;;;;;;;5095028;28;20625;-70
2021/09/20 06:05:46;;;;;;;11.20;8.70;;;;;;;;;;5095008;28;20444;-70
2021/09/20 06:08:14;;;;;;;14.20;9.37;;;;;;;;;;5095313;28;20479;-71
2021/09/20 06:10:41;;;;;;;17.03;9.43;;;;;;;;;;5095711;28;20514;-71
2021/09/20 06:13:09;;;;;;;12.37;9.33;;;;;;;;;;5094851;28;20826;-71
2021/09/20 06:15:38;;;;;;;11.07;9.97;;;;;;;;;;5094953;28;20454;-71
2021/09/20 06:18:06;;;;;;;10.83;8.57;;;;;;;;;;5095203;28;20482;-71
2021/09/20 06:20:33;;;;;;;12.30;9.40;;;;;;;;;;5095043;28;20546;-71
2021/09/20 06:23:01;;;;;;;12.13;9.00;;;;;;;;;;5094647;28;20541;-71
2021/09/20 06:25:28;;;;;;;10.90;9.30;;;;;;;;;;5094900;28;20522;-71
2021/09/20 06:27:55;;;;;;;17.33;9.63;;;;;;;;;;5094573;28;21004;-71
2021/09/20 06:30:23;;;;;;;15.17;8.90;;;;;;;;;;5095248;28;20518;-71
2021/09/20 06:32:51;;;;;;;15.37;9.50;;;;;;;;;;5094709;28;20895;-71
2021/09/20 06:35:19;;;;;;;11.93;9.23;;;;;;;;;;5094654;28;20439;-71
2021/09/20 06:37:46;;;;;;;10.63;8.90;;;;;;;;;;5094338;28;20446;-71
2021/09/20 06:40:13;;;;;;;12.70;9.37;;;;;;;;;;5093793;28;20794;-70
2021/09/20 06:42:40;;;;;;;12.50;9.57;;;;;;;;;;5094307;28;20477;-71
2021/09/20 06:45:08;;;;;;;12.67;9.60;;;;;;;;;;5094817;28;20471;-70
2021/09/20 06:47:35;;;;;;;14.10;9.43;;;;;;;;;;5094208;28;20482;-73
2021/09/20 06:50:04;;;;;;;13.90;9.00;;;;;;;;;;5094153;28;20447;-71
2021/09/20 06:52:31;;;;;;;13.10;8.67;;;;;;;;;;5094620;28;20479;-72
2021/09/20 06:54:58;;;;;;;11.10;9.30;;;;;;;;;;5094340;28;20447;-72
2021/09/20 06:57:26;;;;;;;12.37;8.97;;;;;;;;;;5094227;28;20475;-72
2021/09/20 06:59:53;;;;;;;11.40;9.43;;;;;;;;;;5094838;28;20444;-72
2021/09/20 07:02:20;;;;;;;12.87;9.60;;;;;;;;;;5094599;28;20801;-71
2021/09/20 07:04:47;;;;;;;11.93;8.60;;;;;;;;;;5094119;28;20526;-72
2021/09/20 07:07:17;;;;;;;10.90;8.90;;;;;;;;;;5094105;28;20450;-71
2021/09/20 07:09:45;;;;;;;11.00;8.40;;;;;;;;;;5094668;28;20475;-71
2021/09/20 07:12:12;;;;;;;12.93;9.07;;;;;;;;;;5093758;28;20984;-71
2021/09/20 07:14:40;;;;;;;9.67;7.93;;;;;;;;;;5093705;28;20953;-71
2021/09/20 07:17:07;;;;;;;15.80;9.37;;;;;;;;;;5093975;28;20547;-71
2021/09/20 07:19:34;;;;;;;12.00;8.90;;;;;;;;;;5093915;28;20439;-71
2021/09/20 07:22:01;;;;;;;13.40;9.63;;;;;;;;;;5093872;28;20530;-72
2021/09/20 07:24:30;;;;;;;11.57;8.77;;;;;;;;;;5093728;28;20786;-71
2021/09/20 07:26:58;;;;;;;15.00;9.87;;;;;;;;;;5093810;28;20508;-70
2021/09/20 07:29:26;;;;;;;12.70;9.17;;;;;;;;;;5093235;28;20998;-71
2021/09/20 07:31:53;;;;;;;19.90;10.80;;;;;;;;;;5093795;28;20461;-71
2021/09/20 07:34:21;;;;;;;10.10;9.03;;;;;;;;;;5094221;28;20450;-71
2021/09/20 07:36:48;;;;;;;12.83;8.70;;;;;;;;;;5093743;28;20439;-72
2021/09/20 07:39:15;;;;;;;10.40;9.33;;;;;;;;;;5093300;28;20465;-71
2021/09/20 07:41:44;;;;;;;11.03;9.40;;;;;;;;;;5093606;28;20439;-71
2021/09/20 07:44:11;;;;;;;14.73;9.50;;;;;;;;;;5093192;28;20960;-72
2021/09/20 07:46:38;;;;;;;13.30;8.73;;;;;;;;;;5093573;28;20446;-71
2021/09/20 07:49:05;;;;;;;18.33;9.90;;;;;;;;;;5093754;28;20850;-71
2021/09/20 07:51:33;;;;;;;13.57;10.77;;;;;;;;;;5094812;28;20471;-71
2021/09/20 07:54:00;;;;;;;10.83;9.40;;;;;;;;;;5100140;28;20483;-70
2021/09/20 07:56:28;;;;;;;10.90;8.00;;;;;;;;;;5099880;28;20929;-71
2021/09/20 07:58:56;;;;;;;10.33;7.97;;;;;;;;;;5099997;28;20478;-74
2021/09/20 08:01:23;;;;;;;13.47;8.77;;;;;;;;;;5100280;28;20530;-71
2021/09/20 08:03:51;;;;;;;10.40;8.37;;;;;;;;;;5099770;28;20544;-71
2021/09/20 08:06:18;;;;;;;12.83;8.77;;;;;;;;;;5100146;28;20800;-71
2021/09/20 08:08:45;;;;;;;14.00;9.43;;;;;;;;;;5100086;28;20436;-71
2021/09/20 08:11:12;;;;;;;10.80;7.97;;;;;;;;;;5100080;28;20523;-71
2021/09/20 08:13:40;;;;;;;9.20;8.30;;;;;;;;;;5099794;28;20801;-71
2021/09/20 08:16:09;;;;;;;9.20;7.60;;;;;;;;;;5100218;28;20440;-72
2021/09/20 08:18:36;;;;;;;8.10;7.30;;;;;;;;;;5100050;28;20450;-71
2021/09/20 08:21:04;;;;;;;9.97;7.60;;;;;;;;;;5099951;28;20446;-72
2021/09/20 08:23:31;;;;;;;9.40;8.50;;;;;;;;;;5099939;28;20450;-72
2021/09/20 08:25:59;;;;;;;15.63;7.67;;;;;;;;;;5099919;28;20442;-71
2021/09/20 08:28:26;;;;;;;15.10;7.57;;;;;;;;;;5099677;28;20566;-71
2021/09/20 08:30:53;;;;;;;13.10;7.73;;;;;;;;;;5099879;28;20450;-71
2021/09/20 08:33:22;;;;;;;10.33;8.50;;;;;;;;;;5099861;28;20472;-70
2021/09/20 08:35:49;;;;;;;13.30;8.00;;;;;;;;;;5100527;28;20522;-70
2021/09/20 08:38:16;;;;;;;8.90;7.80;;;;;;;;;;5100704;28;20815;-70
2021/09/20 08:40:43;;;;;;;11.07;7.13;;;;;;;;;;5099850;28;20444;-71
2021/09/20 08:43:11;;;;;;;7.00;6.30;;;;;;;;;;5099558;28;20942;-71
2021/09/20 08:45:38;;;;;;;19.03;10.50;;;;;;;;;;5099564;28;20530;-71
2021/09/20 08:48:06;;;;;;;6.40;5.40;;;;;;;;;;5099642;28;20441;-70
2021/09/20 08:50:35;;;;;;;7.27;6.53;;;;;;;;;;5099851;28;20934;-71
2021/09/20 08:53:03;;;;;;;17.60;9.43;;;;;;;;;;5099902;28;20494;-72
2021/09/20 08:55:32;;;;;;;7.40;6.70;;;;;;;;;;5099420;28;20441;-71
2021/09/20 08:57:59;;;;;;;9.87;5.70;;;;;;;;;;5099753;28;20456;-72
2021/09/20 09:00:27;;;;;;;12.70;7.40;;;;;;;;;;5100077;28;20447;-71
2021/09/20 09:02:54;;;;;;;12.70;7.97;;;;;;;;;;5099053;28;20537;-71
2021/09/20 09:05:22;;;;;;;10.13;7.10;;;;;;;;;;5096012;28;20447;-72
2021/09/20 09:07:52;;;;;;;8.67;7.00;;;;;;;;;;5096691;28;20447;-71
2021/09/20 09:10:20;;;;;;;7.10;6.40;;;;;;;;;;5096191;28;20517;-71
2021/09/20 09:12:47;;;;;;;10.97;6.30;;;;;;;;;;5096130;28;20473;-73
2021/09/20 09:15:16;;;;;;;4.93;4.33;;;;;;;;;;5096528;28;20472;-72
2021/09/20 09:17:44;;;;;;;9.77;8.33;;;;;;;;;;5096193;28;20440;-71
2021/09/20 09:20:13;;;;;;;6.57;5.83;;;;;;;;;;5096092;28;20445;-73
2021/09/20 09:22:42;;;;;;;7.20;5.60;;;;;;;;;;5095996;28;20982;-71
2021/09/20 09:25:12;;;;;;;8.20;4.97;;;;;;;;;;5096441;28;20461;-71
2021/09/20 09:27:40;;;;;;;5.23;4.40;;;;;;;;;;5095554;28;20456;-71
2021/09/20 09:30:10;;;;;;;5.37;4.77;;;;;;;;;;5096761;28;20435;-71
2021/09/20 09:32:38;;;;;;;6.57;4.60;;;;;;;;;;5096178;28;20501;-71
2021/09/20 09:35:07;;;;;;;9.10;5.07;;;;;;;;;;5095629;28;20434;-71
2021/09/20 09:37:35;;;;;;;6.07;4.67;;;;;;;;;;5095743;28;20533;-72
2021/09/20 09:40:07;;;;;;;10.77;4.60;;;;;;;;;;5096753;28;20527;-71
2021/09/20 09:42:38;;;;;;;4.60;4.20;;;;;;;;;;5096684;28;20467;-72
2021/09/20 09:45:19;;;;;;;5.13;4.30;;;;;;;;;;5095670;28;20430;-72
2021/09/20 09:47:48;;;;;;;15.47;4.40;;;;;;;;;;5095874;28;20797;-71
2021/09/20 09:50:16;;;;;;;5.20;4.63;;;;;;;;;;5095237;28;20490;-71
2021/09/20 09:52:44;;;;;;;4.80;4.37;;;;;;;;;;5095876;28;20513;-72
2021/09/20 09:55:12;;;;;;;6.90;5.30;;;;;;;;;;5095492;28;20446;-71
2021/09/20 09:57:41;;;;;;;4.60;4.20;;;;;;;;;;5095547;28;20443;-71
2021/09/20 10:00:10;;;;;;;4.97;4.57;;;;;;;;;;5095422;28;20445;-71
2021/09/20 10:02:38;;;;;;;7.17;3.93;;;;;;;;;;5095362;28;20437;-71
2021/09/20 10:05:06;;;;;;;8.20;4.10;;;;;;;;;;5095251;28;20547;-71
2021/09/20 10:07:34;;;;;;;4.17;3.77;;;;;;;;;;5095274;28;20439;-71
2021/09/20 10:10:02;;;;;;;3.60;3.30;;;;;;;;;;5095107;28;20457;-72
2021/09/20 10:12:30;;;;;;;5.57;3.57;;;;;;;;;;5094811;28;20529;-72
2021/09/20 10:14:59;;;;;;;5.60;3.00;;;;;;;;;;5094159;28;20478;-72
2021/09/20 10:17:27;;;;;;;3.80;3.50;;;;;;;;;;5094917;28;20441;-71
2021/09/20 10:19:56;;;;;;;4.13;3.43;;;;;;;;;;5094640;28;20447;-71
2021/09/20 10:22:24;;;;;;;6.90;3.40;;;;;;;;;;5095025;28;20452;-71
2021/09/20 10:24:53;;;;;;;5.90;2.87;;;;;;;;;;5094905;28;20450;-72
2021/09/20 10:27:21;;;;;;;6.67;3.00;;;;;;;;;;5094760;28;20455;-72
2021/09/20 10:29:50;;;;;;;5.00;3.00;;;;;;;;;;5094445;28;20439;-72
2021/09/20 10:32:19;;;;;;;3.20;2.77;;;;;;;;;;5095237;28;20480;-72
2021/09/20 10:34:48;;;;;;;8.93;3.03;;;;;;;;;;5094953;28;20479;-72
2021/09/20 10:37:16;;;;;;;4.03;2.30;;;;;;;;;;5094354;28;20540;-71
2021/09/20 10:39:56;;;;;;;4.67;2.60;;;;;;;;;;5094360;28;20450;-71
2021/09/20 10:42:43;;;;;;;4.30;2.80;;;;;;;;;;5094758;28;20462;-71
2021/09/20 10:45:30;;;;;;;4.83;2.33;;;;;;;;;;5094222;28;20927;-71
2021/09/20 10:48:02;;;;;;;4.10;2.60;;;;;;;;;;5094353;28;20525;-71
2021/09/20 10:50:43;;;;;;;3.90;2.40;;;;;;;;;;5094076;28;20425;-71
2021/09/20 10:53:17;;;;;;;4.07;2.13;;;;;;;;;;5094221;28;20944;-72
2021/09/20 10:55:59;;;;;;;2.53;2.33;;;;;;;;;;5094927;28;20504;-72
2021/09/20 10:58:26;;;;;;;3.20;2.60;;;;;;;;;;5095217;28;20847;-72
2021/09/20 11:01:19;;;;;;;2.60;2.00;;;;;;;;;;5094005;28;20444;-71
2021/09/20 11:03:49;;;;;;;7.77;3.07;;;;;;;;;;5095077;28;20853;-72
2021/09/20 11:06:20;;;;;;;4.07;2.50;;;;;;;;;;5094268;28;20444;-72
2021/09/20 11:08:47;;;;;;;2.70;2.50;;;;;;;;;;5094200;28;20962;-72
2021/09/20 11:11:33;;;;;;;3.00;2.67;;;;;;;;;;5093921;28;20450;-71
2021/09/20 11:14:02;;;;;;;4.63;2.50;;;;;;;;;;5093795;28;20482;-71
2021/09/20 11:16:48;;;;;;;6.43;2.60;;;;;;;;;;5093823;28;20535;-71
2021/09/20 11:19:33;;;;;;;3.83;2.30;;;;;;;;;;5093761;28;20481;-72
2021/09/20 11:22:19;;;;;;;5.93;2.40;;;;;;;;;;5094030;28;20455;-71
2021/09/20 11:24:49;;;;;;;2.40;2.20;;;;;;;;;;5093909;28;20455;-71
2021/09/20 11:27:17;;;;;;;2.73;2.53;;;;;;;;;;5093381;28;20505;-72
2021/09/20 11:29:49;;;;;;;5.77;2.30;;;;;;;;;;5093874;28;20484;-72
2021/09/20 11:32:17;;;;;;;71.97;9.30;;;;;;;;;;5093601;28;20511;-72
2021/09/20 11:34:48;;;;;;;30.67;4.47;;;;;;;;;;5093395;28;20577;-72
2021/09/20 11:37:19;;;;;;;24.13;4.23;;;;;;;;;;5094032;28;20431;-72
2021/09/20 11:39:48;;;;;;;4.17;2.70;;;;;;;;;;5093512;28;20433;-71
2021/09/20 11:42:16;;;;;;;2.43;2.23;;;;;;;;;;5093701;28;20444;-72
2021/09/20 11:44:50;;;;;;;3.10;1.80;;;;;;;;;;5093648;28;20806;-73
2021/09/20 11:47:18;;;;;;;6.67;2.30;;;;;;;;;;5093348;28;20436;-72
2021/09/20 11:49:47;;;;;;;2.10;2.00;;;;;;;;;;5093575;28;20783;-72
2021/09/20 11:52:14;;;;;;;7.40;2.80;;;;;;;;;;5093225;28;20457;-72
2021/09/20 11:54:48;;;;;;;2.60;1.93;;;;;;;;;;5093453;28;20578;-71
2021/09/20 11:57:22;;;;;;;3.60;3.30;;;;;;;;;;5093811;28;20470;-71
2021/09/20 11:59:50;;;;;;;2.90;2.70;;;;;;;;;;5093312;28;20476;-72
2021/09/20 12:02:30;;;;;;;2.10;1.90;;;;;;;;;;5093529;28;20438;-72
2021/09/20 12:04:57;;;;;;;2.33;2.13;;;;;;;;;;5093182;28;20448;-73
2021/09/20 12:07:28;;;;;;;5.57;1.80;;;;;;;;;;5093489;28;20523;-73
2021/09/20 12:09:56;;;;;;;2.40;2.20;;;;;;;;;;5093746;28;20436;-72
2021/09/20 12:12:28;;;;;;;3.00;2.10;;;;;;;;;;5093130;28;20526;-74
2021/09/20 12:14:56;;;;;;;2.37;1.90;;;;;;;;;;5093109;28;20484;-72
2021/09/20 12:17:23;;;;;;;5.60;3.03;;;;;;;;;;5093100;28;20444;-72
2021/09/20 12:19:54;;;;;;;3.30;2.27;;;;;;;;;;5093439;28;20494;-73
2021/09/20 12:22:22;;;;;;;3.00;1.87;;;;;;;;;;5093293;28;20444;-72
2021/09/20 12:24:49;;;;;;;8.00;3.77;;;;;;;;;;5093323;28;20440;-73
2021/09/20 12:27:16;;;;;;;5.10;3.00;;;;;;;;;;5092801;28;20450;-71
2021/09/20 12:29:49;;;;;;;3.40;2.20;;;;;;;;;;5092863;28;20555;-72
2021/09/20 12:32:21;;;;;;;2.03;1.80;;;;;;;;;;5093530;28;20424;-72
2021/09/20 12:34:57;;;;;;;2.23;2.03;;;;;;;;;;5093349;28;20465;-72
2021/09/20 12:37:26;;;;;;;2.27;2.03;;;;;;;;;;5092984;28;20437;-72
2021/09/20 12:39:54;;;;;;;2.27;2.07;;;;;;;;;;5095571;28;20543;-71
2021/09/20 12:42:25;;;;;;;2.70;2.17;;;;;;;;;;5097126;28;20530;-72
2021/09/20 12:44:54;;;;;;;1.97;1.70;;;;;;;;;;5096680;28;20471;-73
2021/09/20 12:47:22;;;;;;;4.07;1.80;;;;;;;;;;5096588;28;20557;-74
2021/09/20 12:49:57;;;;;;;2.37;1.93;;;;;;;;;;5096580;28;20524;-78
2021/09/20 12:52:26;;;;;;;3.10;2.30;;;;;;;;;;5097307;28;20435;-77
2021/09/20 12:54:53;;;;;;;3.87;2.30;;;;;;;;;;5096666;28;20476;-77
2021/09/20 12:57:21;;;;;;;2.80;2.10;;;;;;;;;;5096263;28;20450;-77
2021/09/20 13:00:00;;;;;;;1.80;1.70;;;;;;;;;;5096682;28;20878;-77
2021/09/20 13:02:28;;;;;;;2.57;2.37;;;;;;;;;;5096421;28;20464;-76
2021/09/20 13:04:57;;;;;;;3.07;2.30;;;;;;;;;;5096267;28;20439;-77
2021/09/20 13:07:27;;;;;;;2.70;2.03;;;;;;;;;;5094925;28;20534;-76
2021/09/20 13:09:55;;;;;;;3.50;2.20;;;;;;;;;;5095163;28;20435;-72
2021/09/20 13:12:23;;;;;;;2.80;2.23;;;;;;;;;;5095690;28;20491;-75
2021/09/20 13:14:52;;;;;;;2.60;2.10;;;;;;;;;;5095656;28;20566;-73
2021/09/20 13:17:20;;;;;;;4.03;2.23;;;;;;;;;;5095861;28;20440;-78
2021/09/20 13:20:01;;;;;;;2.40;2.20;;;;;;;;;;5095635;28;20441;-78
2021/09/20 13:22:29;;;;;;;6.30;2.07;;;;;;;;;;5096390;28;20853;-79
2021/09/20 13:24:56;;;;;;;1.90;1.80;;;;;;;;;;5096204;28;20447;-79
2021/09/20 13:27:24;;;;;;;4.00;2.30;;;;;;;;;;5096145;28;20442;-79
2021/09/20 13:29:51;;;;;;;2.43;2.27;;;;;;;;;;5096071;28;20924;-75
2021/09/20 13:32:18;;;;;;;3.30;2.60;;;;;;;;;;5096062;28;20455;-78
2021/09/20 13:34:45;;;;;;;3.63;2.40;;;;;;;;;;5095483;28;20994;-78
2021/09/20 13:37:14;;;;;;;2.60;2.00;;;;;;;;;;5095789;28;20447;-77
2021/09/20 13:39:41;;;;;;;2.23;2.10;;;;;;;;;;5095518;28;20535;-76
2021/09/20 13:42:09;;;;;;;2.97;2.23;;;;;;;;;;5096007;28;20448;-79
2021/09/20 13:44:36;;;;;;;2.73;1.87;;;;;;;;;;5095812;28;20457;-78
2021/09/20 13:47:03;;;;;;;4.27;2.20;;;;;;;;;;5095772;28;20437;-79
2021/09/20 13:49:30;;;;;;;2.60;1.90;;;;;;;;;;5095641;28;20448;-75
2021/09/20 13:51:57;;;;;;;3.37;1.90;;;;;;;;;;5095846;28;20483;-75
2021/09/20 13:54:26;;;;;;;2.30;2.00;;;;;;;;;;5095221;28;20474;-76
2021/09/20 13:56:53;;;;;;;2.03;1.80;;;;;;;;;;5095292;28;20531;-75
2021/09/20 13:59:21;;;;;;;1.90;1.80;;;;;;;;;;5094977;28;20961;-75
2021/09/20 14:01:48;;;;;;;3.20;2.20;;;;;;;;;;5095390;28;20775;-75
2021/09/20 14:04:15;;;;;;;3.10;2.20;;;;;;;;;;5095712;28;20444;-75
2021/09/20 14:06:42;;;;;;;1.90;1.80;;;;;;;;;;5095402;28;20439;-76
2021/09/20 14:09:09;;;;;;;4.23;1.93;;;;;;;;;;5095143;28;20842;-76
2021/09/20 14:11:38;;;;;;;2.20;2.10;;;;;;;;;;5095282;28;20527;-74
2021/09/20 14:14:06;;;;;;;2.00;1.90;;;;;;;;;;5094881;28;20897;-75
2021/09/20 14:16:33;;;;;;;3.97;2.03;;;;;;;;;;5094987;28;20527;-76
2021/09/20 14:19:01;;;;;;;2.47;2.27;;;;;;;;;;5095151;28;20468;-75
2021/09/20 14:21:28;;;;;;;2.60;1.97;;;;;;;;;;5094248;28;20448;-75
2021/09/20 14:23:55;;;;;;;2.57;2.20;;;;;;;;;;5095221;28;20443;-77
2021/09/20 14:26:23;;;;;;;2.60;1.60;;;;;;;;;;5094525;28;20454;-77
2021/09/20 14:28:51;;;;;;;3.33;2.20;;;;;;;;;;5094967;28;20504;-74
2021/09/20 14:31:19;;;;;;;2.40;2.20;;;;;;;;;;5094591;28;20448;-74
2021/09/20 14:33:46;;;;;;;2.57;1.87;;;;;;;;;;5094762;28;20517;-75
2021/09/20 14:36:14;;;;;;;4.67;2.10;;;;;;;;;;5094703;28;20838;-73
2021/09/20 14:38:41;;;;;;;3.07;2.10;;;;;;;;;;5094330;28;20455;-74
2021/09/20 14:41:08;;;;;;;2.30;2.10;;;;;;;;;;5094070;28;20531;-75
2021/09/20 14:43:37;;;;;;;2.17;1.80;;;;;;;;;;5094435;28;20439;-74